Time;durP1;ratioP1;P1;durP2;ratioP2;P2;SDS_P1;SDS_P2;PMS_P1;PMS_P2;Temp;Humidity;BMP_temperature;BMP_pressure;BME280_temperature;BME280_humidity;BME280_pressure;Samples;Min_cycle;Max_cycle;Signal;HPM_P1;HPM_P2
2022/06/23 00:01:25;;;;;;;1.93;1.70;;;15.70;99.90;;;;;;5052145;28;20659;-47
2022/06/23 00:03:55;;;;;;;1.90;1.80;;;15.60;99.90;;;;;;5053030;28;20227;-46
2022/06/23 00:06:36;;;;;;;2.20;2.00;;;15.60;99.90;;;;;;5052946;28;20323;-47
2022/06/23 00:09:36;;;;;;;2.07;1.97;;;15.50;99.90;;;;;;5040714;28;20278;-48
2022/06/23 00:12:21;;;;;;;1.83;1.73;;;15.40;99.90;;;;;;5055724;28;20557;-49
2022/06/23 00:14:52;;;;;;;1.83;1.70;;;15.40;99.90;;;;;;5046459;28;20231;-49
2022/06/23 00:17:24;;;;;;;2.63;1.70;;;15.30;99.90;;;;;;5053297;28;20714;-46
2022/06/23 00:19:54;;;;;;;2.13;1.80;;;15.30;99.90;;;;;;5050409;28;20239;-49
2022/06/23 00:22:25;;;;;;;1.60;1.50;;;15.20;99.90;;;;;;5052425;28;20659;-49
2022/06/23 00:24:56;;;;;;;1.90;1.80;;;15.20;99.90;;;;;;5053241;28;20255;-47
2022/06/23 00:27:30;;;;;;;2.23;2.03;;;15.10;99.90;;;;;;5053184;28;20247;-47
2022/06/23 00:30:01;;;;;;;2.20;2.00;;;15.20;99.90;;;;;;5050015;28;20765;-47
2022/06/23 00:32:31;;;;;;;1.87;1.77;;;15.10;99.90;;;;;;5052185;28;20240;-47
2022/06/23 00:35:01;;;;;;;2.30;2.17;;;15.10;99.90;;;;;;5052969;28;20652;-47
2022/06/23 00:37:30;;;;;;;2.83;2.63;;;15.10;99.90;;;;;;5052660;28;20561;-48
2022/06/23 00:40:01;;;;;;;2.37;2.17;;;15.10;99.90;;;;;;5050354;28;20571;-47
2022/06/23 00:42:33;;;;;;;2.93;2.20;;;15.00;99.90;;;;;;5055906;28;20230;-47
2022/06/23 00:45:08;;;;;;;2.70;2.50;;;15.00;99.90;;;;;;5052489;28;20557;-49
2022/06/23 00:47:41;;;;;;;2.40;2.20;;;15.00;99.90;;;;;;5052791;28;20293;-48
2022/06/23 00:50:21;;;;;;;2.90;2.70;;;15.00;99.90;;;;;;5049734;28;20224;-47
2022/06/23 00:52:57;;;;;;;2.40;2.20;;;15.00;99.90;;;;;;5045813;28;20575;-47
2022/06/23 00:55:38;;;;;;;2.30;2.10;;;15.00;99.90;;;;;;5052405;28;20262;-46
2022/06/23 00:58:19;;;;;;;2.40;2.20;;;14.90;99.90;;;;;;5051080;28;20232;-48
2022/06/23 01:00:52;;;;;;;2.50;2.30;;;14.90;99.90;;;;;;5049235;28;20733;-48
2022/06/23 01:03:25;;;;;;;2.93;2.00;;;14.80;99.90;;;;;;5051662;28;20244;-47
2022/06/23 01:05:58;;;;;;;2.37;2.20;;;14.80;99.90;;;;;;5052580;28;20627;-49
2022/06/23 01:08:32;;;;;;;2.73;1.97;;;14.80;99.90;;;;;;5049739;28;20568;-47
2022/06/23 01:11:05;;;;;;;2.77;2.30;;;14.80;99.90;;;;;;5052394;28;20551;-50
2022/06/23 01:13:39;;;;;;;2.50;2.30;;;14.70;99.90;;;;;;5053549;28;20576;-47
2022/06/23 01:16:13;;;;;;;2.33;2.17;;;14.70;99.90;;;;;;5052217;28;20223;-48
2022/06/23 01:18:46;;;;;;;2.63;2.30;;;14.70;99.90;;;;;;5049634;28;20298;-47
2022/06/23 01:21:18;;;;;;;2.50;2.30;;;14.70;99.90;;;;;;5051556;28;20230;-49
2022/06/23 01:24:01;;;;;;;2.87;2.67;;;14.60;99.90;;;;;;5044904;28;20281;-47
2022/06/23 01:27:00;;;;;;;3.23;2.90;;;14.60;99.90;;;;;;5052318;28;20238;-48
2022/06/23 01:29:37;;;;;;;2.80;2.60;;;14.60;99.90;;;;;;5049189;28;20251;-47
2022/06/23 01:32:15;;;;;;;3.60;2.50;;;14.60;99.90;;;;;;5051080;28;20243;-48
2022/06/23 01:34:49;;;;;;;2.77;2.57;;;14.60;99.90;;;;;;5044427;28;20564;-47
2022/06/23 01:37:24;;;;;;;2.27;2.17;;;14.50;99.90;;;;;;5052229;28;20289;-46
2022/06/23 01:40:00;;;;;;;2.77;2.57;;;14.60;99.90;;;;;;5049697;28;20255;-48
2022/06/23 01:42:39;;;;;;;3.03;2.67;;;14.60;99.90;;;;;;5054367;28;20274;-47
2022/06/23 01:45:16;;;;;;;2.70;2.50;;;14.50;99.90;;;;;;5051891;28;20227;-47
2022/06/23 01:47:52;;;;;;;3.13;2.60;;;14.50;99.90;;;;;;5052104;28;20227;-49
2022/06/23 01:50:36;;;;;;;3.13;2.83;;;14.50;99.90;;;;;;5049227;28;20635;-47
2022/06/23 01:53:23;;;;;;;2.60;2.40;;;14.50;99.90;;;;;;5051702;28;20322;-48
2022/06/23 01:56:03;;;;;;;3.07;2.77;;;14.40;99.90;;;;;;5051860;28;20301;-48
2022/06/23 01:58:47;;;;;;;2.53;2.33;;;14.40;99.90;;;;;;5049298;28;20228;-46
2022/06/23 02:01:23;;;;;;;2.60;2.40;;;14.40;99.90;;;;;;5051198;28;20263;-47
2022/06/23 02:03:56;;;;;;;3.00;2.60;;;14.30;99.90;;;;;;5049388;28;20251;-46
2022/06/23 02:06:30;;;;;;;2.63;2.43;;;14.30;99.90;;;;;;5050309;28;20707;-47
2022/06/23 02:09:06;;;;;;;2.30;2.20;;;14.30;99.90;;;;;;5049231;28;20632;-48
2022/06/23 02:11:39;;;;;;;2.93;2.30;;;14.30;99.90;;;;;;5059191;28;20239;-47
2022/06/23 02:14:19;;;;;;;2.67;2.47;;;14.30;99.90;;;;;;5051549;28;20238;-47
2022/06/23 02:16:55;;;;;;;2.23;2.07;;;14.30;99.90;;;;;;5052096;28;20259;-47
2022/06/23 02:19:30;;;;;;;2.60;2.40;;;14.20;99.90;;;;;;5050136;28;20228;-48
2022/06/23 02:22:10;;;;;;;2.20;1.87;;;14.20;99.90;;;;;;5054483;28;20251;-47
2022/06/23 02:24:47;;;;;;;1.90;1.80;;;14.20;99.90;;;;;;5055373;28;20220;-48
2022/06/23 02:27:19;;;;;;;2.60;2.40;;;14.10;99.90;;;;;;5055131;28;20255;-47
2022/06/23 02:29:56;;;;;;;2.63;2.40;;;14.10;99.90;;;;;;5055784;28;20231;-47
2022/06/23 02:32:40;;;;;;;2.60;2.40;;;14.10;99.90;;;;;;5051803;28;20227;-48
2022/06/23 02:35:16;;;;;;;2.40;2.20;;;14.10;99.90;;;;;;5054759;28;20318;-49
2022/06/23 02:37:54;;;;;;;3.03;2.83;;;14.00;99.90;;;;;;5047540;28;20578;-46
2022/06/23 02:40:27;;;;;;;2.37;2.17;;;13.90;99.90;;;;;;5052793;28;20231;-47
2022/06/23 02:42:59;;;;;;;2.60;2.40;;;13.90;99.90;;;;;;5056363;28;20299;-47
2022/06/23 02:45:53;;;;;;;2.50;2.30;;;14.00;99.90;;;;;;5054802;28;20259;-48
2022/06/23 02:48:46;;;;;;;3.03;2.77;;;13.90;99.90;;;;;;5052107;28;20231;-49
2022/06/23 02:51:23;;;;;;;2.73;2.53;;;13.90;99.90;;;;;;5054476;28;20642;-48
2022/06/23 02:54:11;;;;;;;3.07;2.87;;;13.90;99.90;;;;;;5048846;28;20274;-48
2022/06/23 02:57:08;;;;;;;3.17;2.87;;;13.90;99.90;;;;;;5055045;28;20703;-46
2022/06/23 02:59:49;;;;;;;2.30;2.20;;;13.90;99.90;;;;;;5051854;28;20224;-47
2022/06/23 03:02:22;;;;;;;2.90;2.60;;;13.90;99.90;;;;;;5049796;28;20234;-47
2022/06/23 03:04:56;;;;;;;2.60;2.40;;;13.90;99.90;;;;;;5054355;28;20282;-47
2022/06/23 03:07:31;;;;;;;2.70;2.50;;;13.90;99.90;;;;;;5054267;28;20638;-46
2022/06/23 03:10:05;;;;;;;2.70;2.50;;;13.90;99.90;;;;;;5051801;28;20230;-47
2022/06/23 03:12:40;;;;;;;2.53;2.33;;;13.90;99.90;;;;;;5061936;28;20246;-46
2022/06/23 03:15:15;;;;;;;3.20;2.90;;;13.90;99.90;;;;;;5053684;28;20246;-48
2022/06/23 03:17:50;;;;;;;2.73;2.53;;;14.00;99.90;;;;;;5054379;28;20259;-47
2022/06/23 03:20:29;;;;;;;3.27;2.97;;;14.00;99.90;;;;;;5059044;28;20261;-48
2022/06/23 03:23:01;;;;;;;3.50;3.20;;;14.00;99.90;;;;;;5052592;28;20224;-48
2022/06/23 03:25:37;;;;;;;3.40;3.10;;;14.00;99.90;;;;;;5052768;28;20240;-48
2022/06/23 03:28:15;;;;;;;3.43;3.13;;;14.00;99.90;;;;;;5052766;28;20237;-48
2022/06/23 03:30:49;;;;;;;3.43;3.13;;;14.10;99.90;;;;;;5047902;28;20232;-47
2022/06/23 03:33:23;;;;;;;3.83;3.30;;;14.20;99.90;;;;;;5052814;28;20238;-46
2022/06/23 03:35:57;;;;;;;3.67;3.37;;;14.20;99.90;;;;;;5053671;28;20273;-47
2022/06/23 03:44:21;;;;;;;3.80;3.50;;;14.50;99.90;;;;;;5002833;28;20233;-47
2022/06/23 03:46:57;;;;;;;4.33;3.40;;;14.60;99.90;;;;;;5035570;28;20285;-48
2022/06/23 03:49:37;;;;;;;3.87;3.57;;;14.60;99.90;;;;;;5048984;28;20665;-47
2022/06/23 03:52:17;;;;;;;3.30;3.00;;;14.60;99.90;;;;;;5050318;28;20318;-47
2022/06/23 03:54:48;;;;;;;4.30;3.90;;;14.70;99.90;;;;;;5050607;28;20289;-47
2022/06/23 03:57:23;;;;;;;3.70;3.40;;;14.70;99.90;;;;;;5052968;28;20220;-47
2022/06/23 04:00:05;;;;;;;6.27;3.60;;;14.80;99.90;;;;;;5045858;28;20686;-47
2022/06/23 04:02:41;;;;;;;4.00;3.40;;;14.80;99.90;;;;;;5052378;28;20630;-48
2022/06/23 04:05:17;;;;;;;3.90;3.60;;;14.90;99.90;;;;;;5050064;28;20223;-47
2022/06/23 04:07:50;;;;;;;3.30;3.10;;;14.90;99.90;;;;;;5052653;28;20236;-49
2022/06/23 04:10:27;;;;;;;3.43;3.10;;;15.00;99.90;;;;;;5051727;28;20231;-48
2022/06/23 04:13:13;;;;;;;4.60;3.33;;;15.00;99.90;;;;;;5052042;28;20234;-47
2022/06/23 04:15:43;;;;;;;4.20;3.37;;;15.00;99.90;;;;;;5033336;28;20264;-46
2022/06/23 04:18:17;;;;;;;3.40;3.10;;;15.10;99.90;;;;;;5034759;28;20244;-47
2022/06/23 04:20:52;;;;;;;4.30;3.83;;;15.20;99.90;;;;;;5052629;28;20228;-49
2022/06/23 04:23:25;;;;;;;2.70;2.50;;;15.30;99.90;;;;;;5053176;28;20568;-48
2022/06/23 04:25:59;;;;;;;3.50;3.20;;;15.40;99.90;;;;;;5053041;28;20230;-50
2022/06/23 04:28:32;;;;;;;4.20;3.80;;;15.50;99.90;;;;;;5050766;28;20232;-48
2022/06/23 04:31:06;;;;;;;3.83;3.40;;;15.70;99.90;;;;;;5052629;28;20227;-47
2022/06/23 04:33:38;;;;;;;5.40;4.90;;;15.80;99.90;;;;;;5052916;28;20240;-47
2022/06/23 04:36:07;;;;;;;4.60;3.83;;;16.10;99.90;;;;;;5051564;28;20303;-48
2022/06/23 04:38:41;;;;;;;5.33;3.40;;;16.20;99.90;;;;;;5050138;28;20231;-48
2022/06/23 04:41:15;;;;;;;4.90;4.23;;;16.30;99.90;;;;;;5051320;28;20234;-46
2022/06/23 04:43:48;;;;;;;4.77;4.27;;;16.40;99.90;;;;;;5044845;28;20781;-46
2022/06/23 04:46:20;;;;;;;5.17;4.10;;;16.50;99.90;;;;;;5052593;28;20224;-48
2022/06/23 04:48:55;;;;;;;6.27;4.03;;;16.60;99.90;;;;;;5050463;28;20285;-46
2022/06/23 04:51:29;;;;;;;4.23;3.83;;;16.70;99.90;;;;;;5051851;28;20234;-48
2022/06/23 04:54:08;;;;;;;4.13;3.83;;;16.80;99.90;;;;;;5051183;28;20236;-47
2022/06/23 04:56:43;;;;;;;4.73;4.07;;;17.00;99.90;;;;;;5052253;28;20711;-48
2022/06/23 04:59:35;;;;;;;4.60;4.10;;;17.30;99.90;;;;;;5058692;28;20227;-47
2022/06/23 05:02:18;;;;;;;8.63;6.20;;;17.40;99.90;;;;;;5045950;28;20231;-48
2022/06/23 05:04:53;;;;;;;6.07;5.10;;;17.60;99.90;;;;;;5044844;28;20231;-49
2022/06/23 05:07:26;;;;;;;12.33;6.73;;;17.90;99.90;;;;;;5052214;28;20235;-47
2022/06/23 05:10:01;;;;;;;6.30;5.47;;;18.20;99.90;;;;;;5057270;28;20278;-47
2022/06/23 05:12:34;;;;;;;9.13;6.70;;;18.30;99.90;;;;;;5051751;28;20302;-47
2022/06/23 05:15:13;;;;;;;9.57;5.97;;;18.50;99.90;;;;;;5049396;28;20224;-47
2022/06/23 05:17:48;;;;;;;12.13;6.57;;;18.80;99.90;;;;;;5032500;28;20295;-50
2022/06/23 05:20:21;;;;;;;5.10;4.57;;;18.90;99.90;;;;;;5048956;28;20314;-48
2022/06/23 05:22:50;;;;;;;12.13;6.67;;;19.10;99.90;;;;;;5050991;28;20225;-47
2022/06/23 05:25:36;;;;;;;8.60;5.60;;;19.30;99.90;;;;;;5051719;28;20241;-47
2022/06/23 05:28:08;;;;;;;9.27;5.60;;;19.50;99.90;;;;;;5051075;28;20222;-47
2022/06/23 05:30:42;;;;;;;9.17;5.60;;;19.60;99.90;;;;;;5058928;28;20319;-49
2022/06/23 05:33:16;;;;;;;6.47;5.43;;;19.70;99.90;;;;;;5049645;28;20283;-49
2022/06/23 05:35:48;;;;;;;8.10;5.00;;;19.80;99.90;;;;;;5071327;28;20280;-49
2022/06/23 05:38:30;;;;;;;10.53;5.87;;;20.10;99.90;;;;;;5048214;28;20223;-48
2022/06/23 05:41:03;;;;;;;8.83;5.40;;;20.20;99.90;;;;;;5043872;28;20234;-48
2022/06/23 05:43:35;;;;;;;8.93;5.07;;;20.30;99.90;;;;;;5048217;28;20788;-47
2022/06/23 05:46:06;;;;;;;8.13;5.30;;;20.50;99.90;;;;;;5043164;28;20244;-50
2022/06/23 05:48:39;;;;;;;8.87;5.40;;;20.60;99.90;;;;;;5041656;28;20654;-49
2022/06/23 05:51:21;;;;;;;6.57;5.13;;;20.60;99.90;;;;;;5043431;28;20699;-50
2022/06/23 05:54:04;;;;;;;7.53;5.27;;;20.70;99.90;;;;;;5044636;28;20251;-49
2022/06/23 05:56:40;;;;;;;6.33;5.47;;;20.90;99.90;;;;;;5061607;28;20255;-48
2022/06/23 05:59:14;;;;;;;9.17;5.70;;;21.10;99.90;;;;;;5046029;28;20263;-48
2022/06/23 06:01:48;;;;;;;6.47;5.17;;;21.10;99.90;;;;;;5046221;28;20271;-49
2022/06/23 06:04:19;;;;;;;8.20;5.50;;;21.20;99.90;;;;;;5048365;28;20719;-49
2022/06/23 06:06:48;;;;;;;6.37;5.60;;;21.40;99.90;;;;;;5048282;28;20235;-47
2022/06/23 06:12:16;;;;;;;5.20;4.33;;;21.70;99.90;;;;;;5034241;28;20245;-49
2022/06/23 06:14:48;;;;;;;5.83;5.10;;;21.60;99.90;;;;;;5048689;28;20271;-50
2022/06/23 06:17:21;;;;;;;8.53;5.07;;;21.90;99.90;;;;;;5048052;28;20231;-48
2022/06/23 06:19:51;;;;;;;6.87;4.50;;;22.00;99.90;;;;;;5045294;28;20231;-48
2022/06/23 06:22:29;;;;;;;5.90;5.10;;;22.10;99.90;;;;;;5046596;28;20241;-48
2022/06/23 06:24:59;;;;;;;8.70;5.30;;;21.90;99.90;;;;;;5046903;28;20276;-49
2022/06/23 06:27:29;;;;;;;12.97;6.10;;;22.00;99.90;;;;;;5046756;28;20232;-49
2022/06/23 06:29:58;;;;;;;11.53;4.93;;;21.80;99.90;;;;;;5045144;28;20669;-50
2022/06/23 06:32:31;;;;;;;9.27;4.90;;;22.10;99.90;;;;;;5046119;28;20231;-47
2022/06/23 06:35:14;;;;;;;5.83;4.80;;;22.20;99.90;;;;;;5048481;28;20316;-48
2022/06/23 06:37:45;;;;;;;6.70;4.67;;;22.40;99.90;;;;;;5048652;28;20283;-48
2022/06/23 06:40:15;;;;;;;6.10;4.70;;;22.50;99.90;;;;;;5044276;28;20718;-50
2022/06/23 06:42:49;;;;;;;9.10;5.20;;;22.80;99.90;;;;;;5048064;28;20328;-49
2022/06/23 06:45:23;;;;;;;8.37;4.60;;;22.90;99.90;;;;;;5062427;28;20595;-48
2022/06/23 06:47:51;;;;;;;8.30;4.63;;;23.20;99.90;;;;;;5047521;28;20230;-48
2022/06/23 06:50:31;;;;;;;7.37;4.27;;;23.40;99.90;;;;;;5044210;28;20238;-50
2022/06/23 06:53:05;;;;;;;8.50;4.90;;;23.50;99.90;;;;;;5047019;28;20722;-47
2022/06/23 06:55:39;;;;;;;8.07;4.30;;;23.50;99.90;;;;;;5048087;28;20248;-48
2022/06/23 06:58:16;;;;;;;7.00;4.67;;;23.40;99.90;;;;;;5044778;28;20852;-49
2022/06/23 07:00:49;;;;;;;13.87;4.77;;;23.60;99.90;;;;;;5046248;28;20223;-50
2022/06/23 07:03:22;;;;;;;11.93;4.50;;;23.90;99.90;;;;;;5045901;28;20248;-49
2022/06/23 07:05:55;;;;;;;8.03;4.60;;;24.20;99.90;;;;;;5045881;28;20297;-49
2022/06/23 07:08:27;;;;;;;4.80;3.77;;;24.20;99.90;;;;;;5042954;28;20320;-49
2022/06/23 07:10:59;;;;;;;5.53;3.87;;;24.20;99.90;;;;;;5047979;28;20753;-47
2022/06/23 07:13:35;;;;;;;5.93;3.83;;;24.50;99.90;;;;;;5045730;28;20240;-47
2022/06/23 07:16:11;;;;;;;6.50;3.57;;;25.00;99.90;;;;;;5045610;28;20220;-50
2022/06/23 07:18:50;;;;;;;4.47;4.00;;;25.30;99.90;;;;;;5052498;28;20285;-48
2022/06/23 07:21:21;;;;;;;6.00;3.63;;;25.60;99.90;;;;;;5047525;28;20228;-49
2022/06/23 07:23:54;;;;;;;5.53;3.93;;;25.90;99.90;;;;;;5045144;28;20233;-51
2022/06/23 07:26:35;;;;;;;4.87;3.50;;;26.10;99.90;;;;;;5045974;28;20613;-49
2022/06/23 07:29:16;;;;;;;6.13;3.60;;;26.30;99.90;;;;;;5042711;28;20736;-49
2022/06/23 07:31:54;;;;;;;6.03;3.80;;;26.40;99.90;;;;;;5048312;28;20238;-48
2022/06/23 07:34:25;;;;;;;7.40;4.00;;;26.60;99.90;;;;;;5044759;28;20253;-50
2022/06/23 07:37:05;;;;;;;6.13;3.80;;;26.80;99.90;;;;;;5046623;28;20917;-50
2022/06/23 07:39:36;;;;;;;7.17;4.27;;;26.80;99.90;;;;;;5043023;28;20233;-48
2022/06/23 07:42:11;;;;;;;4.37;3.23;;;26.50;99.90;;;;;;5044910;28;20766;-48
2022/06/23 07:44:46;;;;;;;6.27;4.27;;;26.90;99.90;;;;;;5052967;28;20219;-48
2022/06/23 07:47:16;;;;;;;6.13;3.60;;;26.80;99.90;;;;;;5048058;28;20237;-48
2022/06/23 07:49:45;;;;;;;5.30;3.57;;;26.90;99.90;;;;;;5044032;28;20301;-50
2022/06/23 07:52:16;;;;;;;5.37;3.73;;;27.00;99.90;;;;;;5047569;28;20243;-48
2022/06/23 07:54:44;;;;;;;5.93;3.50;;;27.10;99.90;;;;;;5045680;28;20254;-49
2022/06/23 07:57:13;;;;;;;5.83;3.47;;;27.50;99.90;;;;;;5052067;28;20278;-49
2022/06/23 07:59:47;;;;;;;4.77;3.20;;;27.60;99.90;;;;;;5053043;28;20578;-50
2022/06/23 08:02:21;;;;;;;5.13;3.73;;;27.70;99.90;;;;;;5052556;28;20260;-49
2022/06/23 08:04:57;;;;;;;6.50;3.73;;;27.60;99.90;;;;;;5045685;28;20247;-48
2022/06/23 08:07:26;;;;;;;3.87;2.90;;;28.00;99.90;;;;;;5044586;28;20224;-49
2022/06/23 08:09:58;;;;;;;4.90;3.33;;;28.30;99.90;;;;;;5042952;28;20760;-49
2022/06/23 08:18:12;;;;;;;4.57;3.50;;;28.60;99.90;;;;;;5043865;28;20264;-50
2022/06/23 08:20:48;;;;;;;5.33;3.30;;;29.30;99.90;;;;;;5045746;28;20231;-48
2022/06/23 08:23:18;;;;;;;5.50;3.40;;;29.00;99.90;;;;;;5044017;28;20222;-47
2022/06/23 08:25:46;;;;;;;8.80;3.30;;;28.80;99.90;;;;;;5045147;28;20770;-47
2022/06/23 08:28:16;;;;;;;6.37;3.70;;;28.50;99.90;;;;;;5045524;28;20751;-49
2022/06/23 08:30:46;;;;;;;6.77;3.63;;;28.70;99.90;;;;;;5044942;28;20242;-48
2022/06/23 08:33:15;;;;;;;4.93;3.13;;;28.80;99.90;;;;;;5043501;28;20234;-50
2022/06/23 08:35:47;;;;;;;4.13;3.10;;;28.70;99.90;;;;;;5045733;28;20250;-49
2022/06/23 08:38:21;;;;;;;6.60;3.37;;;29.10;99.90;;;;;;5044658;28;20626;-49
2022/06/23 08:41:08;;;;;;;6.57;3.30;;;29.10;99.90;;;;;;5054133;28;20594;-50
2022/06/23 08:43:42;;;;;;;5.93;3.27;;;29.00;99.90;;;;;;5051933;28;20285;-48
2022/06/23 08:46:20;;;;;;;6.73;3.43;;;28.70;99.90;;;;;;5052283;28;20256;-48
2022/06/23 08:48:58;;;;;;;5.73;3.10;;;28.60;99.90;;;;;;5048115;28;20232;-48
2022/06/23 08:51:36;;;;;;;4.43;2.83;;;28.70;99.90;;;;;;5053285;28;20253;-48
2022/06/23 08:54:13;;;;;;;4.87;2.83;;;28.40;99.90;;;;;;5051855;28;20243;-50
2022/06/23 08:56:50;;;;;;;5.67;3.00;;;28.30;99.90;;;;;;5048887;28;20227;-51
2022/06/23 08:59:26;;;;;;;5.77;3.20;;;28.80;99.90;;;;;;5042881;28;20300;-50
2022/06/23 09:02:06;;;;;;;4.77;3.33;;;29.40;99.90;;;;;;5044915;28;20668;-48
2022/06/23 09:04:45;;;;;;;5.77;3.00;;;29.80;99.90;;;;;;5044046;28;20243;-49
2022/06/23 09:07:25;;;;;;;4.27;2.60;;;30.30;99.90;;;;;;5049323;28;20272;-48
2022/06/23 09:10:00;;;;;;;5.67;3.20;;;30.70;99.90;;;;;;5047730;28;20318;-50
2022/06/23 09:12:34;;;;;;;7.03;3.10;;;30.50;99.90;;;;;;5045168;28;20662;-49
2022/06/23 09:15:35;;;;;;;5.37;3.17;;;30.60;99.90;;;;;;5047481;28;20233;-53
2022/06/23 09:18:40;;;;;;;4.63;2.70;;;30.50;99.50;;;;;;5045869;28;20733;-48
2022/06/23 09:21:42;;;;;;;3.53;2.60;;;30.50;99.90;;;;;;5048177;28;20889;-49
2022/06/23 09:24:52;;;;;;;3.63;2.80;;;30.50;99.10;;;;;;5052336;28;20236;-48
2022/06/23 09:27:33;;;;;;;7.27;2.93;;;31.10;99.50;;;;;;5038226;28;20280;-50
2022/06/23 09:30:06;;;;;;;7.13;2.63;;;30.90;98.50;;;;;;5052980;22;20737;-76
2022/06/23 09:32:53;;;;;;;8.83;3.40;;;30.50;97.90;;;;;;4992395;28;20728;-77
2022/06/23 09:35:49;;;;;;;3.87;2.90;;;30.40;98.40;;;;;;4993012;28;21249;-77
2022/06/23 09:41:10;;;;;;;6.63;3.07;;;30.40;98.20;;;;;;4925229;29;20273;-56
2022/06/23 09:43:59;;;;;;;7.33;3.23;;;30.50;97.40;;;;;;4929029;29;20723;-57
2022/06/23 09:46:46;;;;;;;5.10;2.87;;;30.80;97.10;;;;;;4929193;29;20299;-55
2022/06/23 09:49:37;;;;;;;6.53;2.53;;;30.50;96.30;;;;;;4929119;29;20279;-53
2022/06/23 09:52:41;;;;;;;6.50;2.63;;;30.50;96.00;;;;;;4926943;29;20322;-57
2022/06/23 09:55:45;;;;;;;4.33;2.50;;;30.90;96.70;;;;;;4929800;29;20768;-54
2022/06/23 09:58:44;;;;;;;3.27;2.50;;;31.20;95.50;;;;;;4924489;29;20751;-57
2022/06/23 10:01:29;;;;;;;5.80;2.37;;;31.20;95.20;;;;;;4930097;28;20240;-56
2022/06/23 10:04:08;;;;;;;3.53;2.67;;;31.20;95.30;;;;;;4930176;29;20668;-57
2022/06/23 10:06:47;;;;;;;22.60;2.80;;;31.00;94.90;;;;;;4929551;29;20774;-57
2022/06/23 10:09:29;;;;;;;5.43;2.47;;;31.20;94.60;;;;;;4927394;29;20320;-56
2022/06/23 10:12:08;;;;;;;4.23;2.50;;;31.80;94.00;;;;;;4928550;29;20313;-57
2022/06/23 10:14:52;;;;;;;3.30;2.37;;;31.70;93.20;;;;;;4930885;28;20240;-56
2022/06/23 10:17:36;;;;;;;3.90;2.30;;;32.10;91.60;;;;;;4929718;29;20233;-55
2022/06/23 10:20:27;;;;;;;6.93;2.30;;;31.80;93.00;;;;;;4928232;29;20257;-55
2022/06/23 10:23:14;;;;;;;32.90;3.20;;;31.40;92.30;;;;;;4928324;29;20232;-56
2022/06/23 10:26:01;;;;;;;7.40;2.93;;;32.00;93.40;;;;;;4928460;29;20227;-56
2022/06/23 10:28:55;;;;;;;15.27;2.90;;;32.20;92.20;;;;;;4928806;29;20231;-56
2022/06/23 10:31:44;;;;;;;19.80;2.87;;;32.20;92.20;;;;;;4920325;29;20239;-55
2022/06/23 10:34:30;;;;;;;12.63;2.87;;;32.70;92.20;;;;;;4914060;29;20338;-57
2022/06/23 10:37:41;;;;;;;6.03;2.43;;;32.80;91.70;;;;;;4912764;29;20743;-57
2022/06/23 10:40:46;;;;;;;14.77;2.90;;;32.60;91.40;;;;;;4905669;29;20254;-57
2022/06/23 10:43:43;;;;;;;11.03;2.63;;;32.20;91.10;;;;;;4908825;29;20732;-56
2022/06/23 10:46:14;;;;;;;5.60;2.47;;;32.20;90.80;;;;;;4912635;29;20712;-56
2022/06/23 10:49:06;;;;;;;4.40;2.67;;;32.50;90.90;;;;;;4914100;29;20240;-56
2022/06/23 10:51:54;;;;;;;4.07;2.63;;;32.70;91.30;;;;;;4903863;29;20240;-54
2022/06/23 10:54:41;;;;;;;4.47;2.70;;;32.20;90.20;;;;;;4913863;29;20745;-55
2022/06/23 10:57:23;;;;;;;4.50;2.50;;;32.10;90.40;;;;;;4913793;29;20603;-56
2022/06/23 11:00:12;;;;;;;4.23;2.73;;;32.40;90.20;;;;;;4915732;29;20232;-57
2022/06/23 11:03:21;;;;;;;7.07;2.70;;;33.20;91.30;;;;;;4922962;29;21432;-56
2022/06/23 11:06:07;;;;;;;5.13;2.40;;;33.10;89.70;;;;;;4926444;29;20236;-56
2022/06/23 11:08:49;;;;;;;4.23;2.70;;;33.50;90.00;;;;;;4927199;29;20354;-56
2022/06/23 11:11:35;;;;;;;5.93;2.30;;;33.60;89.70;;;;;;4927317;29;20223;-56
2022/06/23 11:14:11;;;;;;;3.67;2.73;;;34.30;89.70;;;;;;4928067;29;20292;-53
2022/06/23 11:16:51;;;;;;;4.67;2.40;;;34.30;86.40;;;;;;4928018;29;20334;-54
2022/06/23 11:19:35;;;;;;;4.03;2.20;;;34.60;90.40;;;;;;4927308;29;20267;-54
2022/06/23 11:22:22;;;;;;;4.13;2.83;;;34.80;85.90;;;;;;4928016;29;20753;-53
2022/06/23 11:25:00;;;;;;;5.43;2.80;;;34.40;83.10;;;;;;4929552;29;20287;-53
2022/06/23 11:27:38;;;;;;;4.47;2.47;;;34.10;85.40;;;;;;4926531;29;20242;-54
2022/06/23 11:30:20;;;;;;;4.50;2.57;;;34.10;85.70;;;;;;4926806;29;20247;-54
2022/06/23 11:33:19;;;;;;;4.50;2.73;;;34.00;85.10;;;;;;4926157;28;20267;-54
2022/06/23 11:36:13;;;;;;;3.27;2.47;;;33.60;85.40;;;;;;4927631;29;20275;-53
2022/06/23 11:38:55;;;;;;;3.17;2.30;;;33.50;85.40;;;;;;4926480;29;20273;-53
2022/06/23 11:41:41;;;;;;;3.90;2.70;;;33.00;85.70;;;;;;4925040;29;20232;-54
2022/06/23 11:44:23;;;;;;;3.90;2.33;;;33.30;86.70;;;;;;4927418;29;20614;-54
2022/06/23 11:46:59;;;;;;;3.03;2.20;;;33.80;86.50;;;;;;4926813;29;20240;-53
2022/06/23 11:49:39;;;;;;;4.40;2.70;;;33.80;84.80;;;;;;4927105;29;20654;-54
2022/06/23 11:52:28;;;;;;;3.77;2.40;;;34.10;85.20;;;;;;4926703;29;20573;-53
2022/06/23 11:55:22;;;;;;;4.93;2.30;;;34.40;85.80;;;;;;4928153;29;20247;-54
2022/06/23 11:58:18;;;;;;;4.60;2.47;;;34.60;81.50;;;;;;4927379;29;20295;-54
2022/06/23 12:00:56;;;;;;;3.73;2.20;;;34.10;79.90;;;;;;4905596;29;20623;-54
2022/06/23 12:03:42;;;;;;;2.37;2.17;;;33.70;81.60;;;;;;4926733;29;20235;-53
2022/06/23 12:06:21;;;;;;;3.20;2.40;;;33.10;82.10;;;;;;4926330;29;20330;-54
2022/06/23 12:09:01;;;;;;;3.73;2.30;;;32.50;83.20;;;;;;4926074;29;20719;-54
2022/06/23 12:11:32;;;;;;;4.47;2.20;;;32.90;87.50;;;;;;4925716;29;20239;-54
2022/06/23 12:14:03;;;;;;;4.67;2.17;;;32.90;87.20;;;;;;4926494;29;20250;-53
2022/06/23 12:16:32;;;;;;;3.77;2.53;;;33.10;87.70;;;;;;4925790;29;20824;-54
2022/06/23 12:19:06;;;;;;;3.63;2.20;;;32.90;82.70;;;;;;4925794;29;20861;-54
2022/06/23 12:21:41;;;;;;;2.33;2.13;;;33.10;86.10;;;;;;4925913;29;20297;-54
2022/06/23 12:24:17;;;;;;;4.43;2.17;;;32.70;82.50;;;;;;4927212;29;20789;-54
2022/06/23 12:26:50;;;;;;;5.77;2.37;;;32.50;85.20;;;;;;4926601;29;20258;-54
2022/06/23 12:29:22;;;;;;;6.27;2.33;;;32.50;85.10;;;;;;4925969;29;20553;-52
2022/06/23 12:31:57;;;;;;;2.53;2.10;;;32.50;82.80;;;;;;4925212;28;20746;-53
2022/06/23 12:34:37;;;;;;;3.03;1.90;;;32.50;85.90;;;;;;4925660;29;20282;-55
2022/06/23 12:37:16;;;;;;;3.77;2.07;;;32.70;84.50;;;;;;4927022;29;20246;-54
2022/06/23 12:39:52;;;;;;;2.03;1.80;;;32.90;83.10;;;;;;4925514;29;20648;-54
2022/06/23 12:42:27;;;;;;;2.67;2.10;;;32.70;84.30;;;;;;4925675;29;20257;-53
2022/06/23 12:45:26;;;;;;;3.13;2.13;;;32.80;83.30;;;;;;4926301;29;20238;-55
2022/06/23 12:48:11;;;;;;;3.60;2.13;;;32.90;86.70;;;;;;4925217;29;20242;-54
2022/06/23 12:50:51;;;;;;;3.73;2.10;;;32.50;82.30;;;;;;4926032;29;20243;-54
2022/06/23 12:53:37;;;;;;;3.37;2.13;;;32.30;85.10;;;;;;4926461;29;20253;-54
2022/06/23 12:56:19;;;;;;;3.33;2.00;;;32.00;82.90;;;;;;4926379;29;20238;-54
2022/06/23 12:58:54;;;;;;;3.20;2.03;;;31.80;82.60;;;;;;4925441;29;20223;-54
2022/06/23 13:01:37;;;;;;;4.73;2.27;;;31.60;83.00;;;;;;4926349;28;20253;-51
2022/06/23 13:04:11;;;;;;;2.37;1.83;;;31.70;82.80;;;;;;4926431;29;20245;-54
2022/06/23 13:06:49;;;;;;;2.93;1.90;;;31.70;82.40;;;;;;4926895;29;20290;-53
2022/06/23 13:09:30;;;;;;;3.47;2.00;;;31.80;83.30;;;;;;4925317;29;20290;-53
2022/06/23 13:12:24;;;;;;;6.30;2.10;;;31.80;82.60;;;;;;4925957;29;20593;-52
2022/06/23 13:14:56;;;;;;;2.83;2.10;;;31.50;82.30;;;;;;4925824;29;20245;-53
2022/06/23 13:17:33;;;;;;;3.07;2.20;;;31.30;84.50;;;;;;4926402;29;20317;-54
2022/06/23 13:20:07;;;;;;;4.17;2.30;;;31.30;81.50;;;;;;4922131;28;20245;-53
2022/06/23 13:22:46;;;;;;;3.47;2.17;;;31.10;82.80;;;;;;4864966;29;79291;-54
2022/06/23 13:25:25;;;;;;;5.43;2.20;;;31.20;81.50;;;;;;4870821;29;20290;-53
2022/06/23 13:27:55;;;;;;;4.47;2.07;;;31.10;82.90;;;;;;4870960;29;20230;-54
2022/06/23 13:30:48;;;;;;;4.80;2.03;;;31.10;82.20;;;;;;4870241;29;20248;-53
2022/06/23 13:33:24;;;;;;;3.47;2.20;;;31.10;82.90;;;;;;4887862;29;20236;-52
2022/06/23 13:35:59;;;;;;;3.97;2.20;;;31.20;81.60;;;;;;4888115;29;20240;-52
2022/06/23 13:38:37;;;;;;;4.03;2.37;;;31.00;82.90;;;;;;4886956;29;20249;-54
2022/06/23 13:41:14;;;;;;;2.57;1.80;;;30.70;84.20;;;;;;4887916;29;20708;-54
2022/06/23 13:43:48;;;;;;;4.37;2.10;;;30.60;85.80;;;;;;4888404;29;20369;-53
2022/06/23 13:46:23;;;;;;;3.37;2.20;;;30.70;85.70;;;;;;4888322;29;20238;-51
2022/06/23 13:49:04;;;;;;;3.97;2.30;;;30.80;83.70;;;;;;4884159;29;20235;-53
2022/06/23 13:51:40;;;;;;;2.93;2.10;;;30.70;81.50;;;;;;4886166;29;20249;-52
2022/06/23 13:54:16;;;;;;;3.03;2.40;;;30.70;83.40;;;;;;4886188;29;20234;-51
2022/06/23 13:56:53;;;;;;;4.60;2.30;;;30.50;82.30;;;;;;4887344;29;20238;-51
2022/06/23 13:59:31;;;;;;;3.07;2.40;;;30.50;85.40;;;;;;4884873;29;20297;-52